Terminal Aerodrome Forecast
Issued by NWS Wakefield, VA

Home | Current Version | Previous Version | Text Only | Print | Product List | Glossary On
Versions: 1 2 3 4 5 6 7 8 9 10 11 12 13
000
FTUS41 KAKQ 041146 RRA
TAFSBY
TAF
KSBY 041146Z 0412/0512 35005KT P6SM BKN200
     FM042200 VRB03KT P6SM BKN100
     FM050500 VRB03KT P6SM -RA OVC040
     FM050900 VRB03KT 4SM -RA SCT007 OVC015=

USA.gov is the U.S. government's official web portal to all federal, state and local government web resources and services.